Time;durP1;ratioP1;P1;durP2;ratioP2;P2;SDS_P1;SDS_P2;PMS_P1;PMS_P2;Temp;Humidity;BMP_temperature;BMP_pressure;BME280_temperature;BME280_humidity;BME280_pressure;Samples;Min_cycle;Max_cycle;Signal;HPM_P1;HPM_P2
2022/06/10 00:00:40;;;;;;;9.60;1.67;;;13.40;99.90;;;;;;5045273;28;20025;-88
2022/06/10 00:03:07;;;;;;;10.38;1.83;;;13.30;99.90;;;;;;5038859;28;20029;-87
2022/06/10 00:05:36;;;;;;;5.63;1.40;;;13.20;99.90;;;;;;5021979;28;20033;-87
2022/06/10 00:08:03;;;;;;;10.18;1.55;;;13.20;99.90;;;;;;5040000;28;20032;-87
2022/06/10 00:10:29;;;;;;;6.78;1.63;;;13.10;99.90;;;;;;5027095;28;20040;-87
2022/06/10 00:12:55;;;;;;;11.10;1.40;;;13.10;99.90;;;;;;5041176;28;20029;-86
2022/06/10 00:15:21;;;;;;;9.30;1.75;;;12.90;99.90;;;;;;5040118;28;20104;-87
2022/06/10 00:17:47;;;;;;;12.27;1.67;;;12.90;99.90;;;;;;5043814;28;20033;-87
2022/06/10 00:20:14;;;;;;;9.35;1.65;;;12.80;99.90;;;;;;5042318;28;20427;-88
2022/06/10 00:22:40;;;;;;;8.73;2.28;;;12.80;99.90;;;;;;5024980;28;20033;-87
2022/06/10 00:25:07;;;;;;;4.68;1.02;;;12.80;99.90;;;;;;5040630;28;20433;-87
2022/06/10 00:27:33;;;;;;;6.80;1.40;;;12.70;99.90;;;;;;5042327;28;20151;-87
2022/06/10 00:29:58;;;;;;;7.85;1.70;;;12.70;99.90;;;;;;5037096;28;20060;-88
2022/06/10 00:32:24;;;;;;;9.15;1.80;;;12.60;99.90;;;;;;5025724;28;20052;-87
2022/06/10 00:34:49;;;;;;;5.07;1.35;;;12.50;99.90;;;;;;5026465;28;20407;-87
2022/06/10 00:37:15;;;;;;;9.27;2.17;;;12.50;99.90;;;;;;5039538;28;20017;-86
2022/06/10 00:39:40;;;;;;;5.97;1.77;;;12.50;99.90;;;;;;5041763;28;20021;-88
2022/06/10 00:42:07;;;;;;;5.90;1.63;;;12.50;99.90;;;;;;5044674;28;20059;-88
2022/06/10 00:44:36;;;;;;;12.55;2.67;;;12.40;99.90;;;;;;5048846;28;20026;-88
2022/06/10 00:47:05;;;;;;;9.35;2.33;;;12.40;99.90;;;;;;5048410;28;20052;-88
2022/06/10 00:49:31;;;;;;;10.32;2.10;;;12.40;99.90;;;;;;5028396;28;20021;-87
2022/06/10 00:51:58;;;;;;;7.35;2.08;;;12.30;99.90;;;;;;5030114;28;20040;-87
2022/06/10 00:54:38;;;;;;;7.03;2.30;;;12.40;99.90;;;;;;5045077;28;20025;-88
2022/06/10 00:57:15;;;;;;;12.05;2.95;;;12.30;99.90;;;;;;5025731;28;20024;-87
2022/06/10 01:00:02;;;;;;;8.63;2.38;;;12.30;99.90;;;;;;5033562;28;20083;-87
2022/06/10 01:02:34;;;;;;;10.02;3.17;;;12.40;99.90;;;;;;5041726;28;20108;-87
2022/06/10 01:05:03;;;;;;;8.90;3.00;;;12.30;99.90;;;;;;5026800;28;20053;-87
2022/06/10 01:07:35;;;;;;;10.55;2.67;;;12.30;99.90;;;;;;5026104;28;20396;-87
2022/06/10 01:10:03;;;;;;;9.70;3.92;;;12.30;99.90;;;;;;5032554;28;20035;-87
2022/06/10 01:12:56;;;;;;;6.68;3.10;;;12.30;99.90;;;;;;5050395;28;20045;-87
2022/06/10 01:15:22;;;;;;;;;;;12.20;99.90;;;;;;5049157;28;20488;-88
2022/06/10 01:18:04;;;;;;;7.45;2.72;;;12.20;99.90;;;;;;5050096;28;19916;-87
2022/06/10 01:21:01;;;;;;;8.48;3.10;;;12.20;99.90;;;;;;5043969;28;20040;-87
2022/06/10 01:23:58;;;;;;;7.45;3.08;;;12.20;99.90;;;;;;5039860;28;20171;-87
2022/06/10 01:26:29;;;;;;;10.10;2.70;;;12.20;99.90;;;;;;5043065;28;20518;-87
2022/06/10 01:29:08;;;;;;;9.75;3.53;;;12.20;99.90;;;;;;5038635;28;20477;-87
2022/06/10 01:31:38;;;;;;;17.08;3.67;;;12.20;99.90;;;;;;5040659;28;20033;-87
2022/06/10 01:34:33;;;;;;;11.68;3.97;;;12.20;99.90;;;;;;5048816;28;20031;-87
2022/06/10 01:37:13;;;;;;;11.93;3.15;;;12.30;99.90;;;;;;4994812;28;20513;-87
2022/06/10 01:40:00;;;;;;;14.05;4.00;;;12.30;99.90;;;;;;5005326;28;20490;-87
2022/06/10 01:42:36;;;;;;;12.00;3.22;;;12.20;99.90;;;;;;5005135;28;20062;-87
2022/06/10 01:45:31;;;;;;;7.38;2.88;;;12.20;99.90;;;;;;5001169;28;20028;-87
2022/06/10 01:48:04;;;;;;;9.10;4.18;;;12.30;99.90;;;;;;5003831;28;20433;-87
2022/06/10 01:50:47;;;;;;;10.60;3.00;;;12.40;99.90;;;;;;5005158;28;20065;-87
2022/06/10 01:53:38;;;;;;;9.40;2.78;;;12.40;99.90;;;;;;5007811;28;20026;-87
2022/06/10 01:56:13;;;;;;;11.82;3.40;;;12.50;99.90;;;;;;5004505;28;20092;-87
2022/06/10 01:58:44;;;;;;;9.98;3.15;;;12.50;99.90;;;;;;5004867;28;20026;-87
2022/06/10 02:01:19;;;;;;;6.87;2.87;;;12.60;99.90;;;;;;5005283;28;20033;-87
2022/06/10 02:03:53;;;;;;;11.98;3.42;;;12.60;99.90;;;;;;5004671;28;20087;-87
2022/06/10 02:06:35;;;;;;;9.88;3.10;;;12.70;99.90;;;;;;5004014;28;20030;-87
2022/06/10 02:09:07;;;;;;;10.83;3.70;;;12.80;99.90;;;;;;5002150;28;20034;-88
2022/06/10 02:11:36;;;;;;;9.32;3.60;;;12.80;99.90;;;;;;5009714;28;20297;-87
2022/06/10 02:14:18;;;;;;;7.47;3.38;;;12.90;99.90;;;;;;5022109;28;20036;-87
2022/06/10 02:16:46;;;;;;;13.05;2.92;;;13.00;99.90;;;;;;5004748;28;20032;-86
2022/06/10 02:19:21;;;;;;;8.43;3.10;;;13.10;99.90;;;;;;5005247;28;20073;-87
2022/06/10 02:21:59;;;;;;;8.88;3.47;;;13.10;99.90;;;;;;5006097;28;20026;-86
2022/06/10 02:24:49;;;;;;;9.20;2.63;;;13.20;99.90;;;;;;5003517;28;20065;-87
2022/06/10 02:27:22;;;;;;;13.07;3.10;;;13.30;99.90;;;;;;5012391;28;20061;-86
2022/06/10 02:30:06;;;;;;;9.35;3.13;;;13.30;99.90;;;;;;5004989;28;20030;-87
2022/06/10 02:32:35;;;;;;;13.57;3.05;;;13.40;99.90;;;;;;5001926;28;20080;-87
2022/06/10 02:35:01;;;;;;;8.75;2.35;;;13.40;99.90;;;;;;5016864;28;20088;-88
2022/06/10 02:37:46;;;;;;;12.32;3.78;;;13.50;99.90;;;;;;5037006;28;20056;-86
2022/06/10 02:40:31;;;;;;;9.23;2.30;;;13.50;99.90;;;;;;5038613;28;20027;-87
2022/06/10 02:43:20;;;;;;;10.63;2.63;;;13.60;99.90;;;;;;5020122;28;20025;-87
2022/06/10 02:45:55;;;;;;;8.13;1.92;;;13.60;99.90;;;;;;5038959;28;20057;-87
2022/06/10 02:48:29;;;;;;;12.93;1.90;;;13.70;99.90;;;;;;5045739;28;20025;-87
2022/06/10 02:50:55;;;;;;;8.43;2.13;;;13.70;99.90;;;;;;5043396;28;20093;-87
2022/06/10 02:53:21;;;;;;;10.98;2.03;;;13.80;99.90;;;;;;5021867;28;20017;-88
2022/06/10 02:55:46;;;;;;;14.38;2.50;;;13.90;99.90;;;;;;5028769;28;20439;-86
2022/06/10 03:01:24;;;;;;;10.23;1.40;;;13.90;99.90;;;;;;5043186;28;20044;-87
2022/06/10 03:04:14;;;;;;;8.63;1.75;;;14.00;99.90;;;;;;5042968;28;20401;-87
2022/06/10 03:07:06;;;;;;;9.88;1.45;;;14.00;99.90;;;;;;5039025;28;20091;-87
2022/06/10 03:10:01;;;;;;;7.50;1.67;;;14.10;99.90;;;;;;5042553;28;20120;-88
2022/06/10 03:12:52;;;;;;;10.90;1.55;;;14.10;99.90;;;;;;5025005;28;20115;-87
2022/06/10 03:15:52;;;;;;;6.07;1.48;;;14.20;99.90;;;;;;5041376;28;20206;-86
2022/06/10 03:18:38;;;;;;;7.63;1.88;;;14.10;99.90;;;;;;5032613;28;20391;-87
2022/06/10 03:21:23;;;;;;;6.75;1.42;;;14.10;99.90;;;;;;5042330;28;20404;-87
2022/06/10 03:24:01;;;;;;;7.10;1.42;;;14.20;99.90;;;;;;5025602;28;20397;-87
2022/06/10 03:26:40;;;;;;;10.10;1.90;;;14.10;99.90;;;;;;5043509;28;20033;-88
2022/06/10 03:29:18;;;;;;;10.93;3.15;;;14.20;99.90;;;;;;5050864;28;20029;-87
2022/06/10 03:31:51;;;;;;;11.73;2.35;;;14.20;99.90;;;;;;5029259;28;20160;-87
2022/06/10 03:34:32;;;;;;;8.32;1.60;;;14.20;99.90;;;;;;5017609;28;20032;-87
2022/06/10 03:37:00;;;;;;;12.52;2.13;;;14.20;99.90;;;;;;5044140;28;20032;-87
2022/06/10 03:39:27;;;;;;;8.23;2.22;;;14.30;99.90;;;;;;5034725;28;20512;-87
2022/06/10 03:42:09;;;;;;;10.90;1.75;;;14.30;99.90;;;;;;5050344;28;20116;-88
2022/06/10 03:44:35;;;;;;;13.05;2.42;;;14.30;99.90;;;;;;5031057;28;20025;-88
2022/06/10 03:47:04;;;;;;;12.30;2.08;;;14.30;99.90;;;;;;5051390;28;20032;-87
2022/06/10 03:49:37;;;;;;;10.30;2.22;;;14.30;99.90;;;;;;5050490;28;20083;-88
2022/06/10 03:52:03;;;;;;;6.30;1.63;;;14.40;99.90;;;;;;5034088;28;20439;-87
2022/06/10 03:54:29;;;;;;;9.77;1.40;;;14.40;99.90;;;;;;5032402;28;20079;-87
2022/06/10 03:56:55;;;;;;;9.77;1.85;;;14.40;99.90;;;;;;5023862;28;20060;-87
2022/06/10 03:59:20;;;;;;;14.20;2.55;;;14.40;99.90;;;;;;5052035;28;20029;-88
2022/06/10 04:01:46;;;;;;;9.95;2.38;;;14.40;99.90;;;;;;5034465;28;20036;-89
2022/06/10 04:04:12;;;;;;;10.20;2.30;;;14.40;99.90;;;;;;5022538;28;20366;-87
2022/06/10 04:06:38;;;;;;;10.48;2.20;;;14.40;99.90;;;;;;5033039;28;20396;-88
2022/06/10 04:09:04;;;;;;;9.93;1.50;;;14.40;99.90;;;;;;5033288;28;20504;-87
2022/06/10 04:11:29;;;;;;;7.97;2.42;;;14.40;99.90;;;;;;5030665;28;20485;-88
2022/06/10 04:13:55;;;;;;;8.82;1.75;;;14.50;99.90;;;;;;5052588;28;20032;-88
2022/06/10 04:16:20;;;;;;;7.95;1.98;;;14.50;99.90;;;;;;5037684;28;20058;-88
2022/06/10 04:18:46;;;;;;;12.10;2.25;;;14.50;99.90;;;;;;5028220;28;20064;-88
2022/06/10 04:21:11;;;;;;;7.78;1.30;;;14.50;99.90;;;;;;5028245;28;20025;-88
2022/06/10 04:23:37;;;;;;;8.15;1.30;;;14.60;99.90;;;;;;5026298;28;20048;-87
2022/06/10 04:26:03;;;;;;;10.98;1.90;;;14.60;99.90;;;;;;5027265;28;20029;-87
2022/06/10 04:28:29;;;;;;;4.03;1.48;;;14.60;99.90;;;;;;5027136;28;20021;-88
2022/06/10 04:30:55;;;;;;;9.20;2.13;;;14.50;99.90;;;;;;5026360;28;20025;-86
2022/06/10 04:33:21;;;;;;;6.93;1.90;;;14.50;99.90;;;;;;5027233;28;20037;-85
2022/06/10 04:35:49;;;;;;;11.23;2.08;;;14.50;99.90;;;;;;5022623;28;20067;-87
2022/06/10 04:38:17;;;;;;;9.18;2.13;;;14.50;99.90;;;;;;5027379;28;20091;-88
2022/06/10 04:40:43;;;;;;;9.55;1.50;;;14.50;99.90;;;;;;5028593;28;20021;-87
2022/06/10 04:43:09;;;;;;;9.00;2.08;;;14.60;99.90;;;;;;5025065;28;20094;-87
2022/06/10 04:45:56;;;;;;;5.18;1.27;;;14.60;99.90;;;;;;5031409;28;20022;-87
2022/06/10 04:48:22;;;;;;;5.35;1.23;;;14.60;99.90;;;;;;5027101;28;20205;-88
2022/06/10 04:50:47;;;;;;;6.05;1.67;;;14.70;99.90;;;;;;5024305;28;20043;-87
2022/06/10 04:53:13;;;;;;;12.00;3.15;;;14.70;99.90;;;;;;5022930;28;20030;-87
2022/06/10 04:55:39;;;;;;;11.60;2.10;;;14.80;99.90;;;;;;5024514;28;20175;-87
2022/06/10 04:58:05;;;;;;;8.90;2.08;;;14.80;99.90;;;;;;5025951;28;20112;-86
2022/06/10 05:00:34;;;;;;;9.73;2.17;;;14.80;99.90;;;;;;5023213;28;21735;-84
2022/06/10 05:03:01;;;;;;;9.38;2.30;;;14.90;99.90;;;;;;5023555;28;20028;-86
2022/06/10 05:05:28;;;;;;;7.93;2.33;;;15.00;99.90;;;;;;5021257;28;20678;-87
2022/06/10 05:07:54;;;;;;;8.05;2.20;;;15.00;99.90;;;;;;5021309;28;20025;-87
2022/06/10 05:10:20;;;;;;;11.00;4.97;;;15.10;99.90;;;;;;5040643;28;20103;-87
2022/06/10 05:12:46;;;;;;;9.63;2.47;;;15.10;99.90;;;;;;5037225;28;20033;-86
2022/06/10 05:15:16;;;;;;;10.30;4.10;;;15.20;99.90;;;;;;5022625;28;20029;-87
2022/06/10 05:17:42;;;;;;;7.10;2.15;;;15.20;99.90;;;;;;5025110;28;20112;-87
2022/06/10 05:20:12;;;;;;;7.07;1.92;;;15.30;99.90;;;;;;5026577;28;20021;-86
2022/06/10 05:22:37;;;;;;;9.25;2.80;;;15.40;99.90;;;;;;5028369;28;20021;-87
2022/06/10 05:25:03;;;;;;;8.85;2.00;;;15.40;99.90;;;;;;5024563;28;20042;-87
2022/06/10 05:27:29;;;;;;;6.80;1.88;;;15.40;99.90;;;;;;5022442;28;20036;-87
2022/06/10 05:29:54;;;;;;;12.52;2.45;;;15.30;99.90;;;;;;5020886;28;20255;-88
2022/06/10 05:32:20;;;;;;;7.95;2.05;;;15.40;99.90;;;;;;5037424;28;20522;-88
2022/06/10 05:34:46;;;;;;;8.55;2.28;;;15.50;99.90;;;;;;5023999;28;20555;-86
2022/06/10 05:37:18;;;;;;;9.63;2.08;;;15.50;99.90;;;;;;5027012;28;20033;-88
2022/06/10 05:39:44;;;;;;;7.60;1.77;;;15.60;99.90;;;;;;5026669;28;20033;-88
2022/06/10 05:42:10;;;;;;;13.02;2.35;;;15.70;99.90;;;;;;5025671;28;20037;-87
2022/06/10 05:44:42;;;;;;;7.68;1.75;;;15.80;99.90;;;;;;5025326;28;20059;-87
2022/06/10 05:47:20;;;;;;;9.40;1.88;;;15.90;99.90;;;;;;5035216;28;20099;-87
2022/06/10 05:49:48;;;;;;;8.48;1.80;;;16.10;99.90;;;;;;5038611;28;20025;-87
2022/06/10 05:52:16;;;;;;;11.60;1.77;;;16.20;99.90;;;;;;5036684;28;20060;-87
2022/06/10 05:54:44;;;;;;;9.48;1.60;;;16.20;99.90;;;;;;5029440;28;20057;-86
2022/06/10 05:57:11;;;;;;;11.40;2.08;;;16.30;99.90;;;;;;5036334;28;20033;-87
2022/06/10 05:59:37;;;;;;;9.63;2.08;;;16.30;99.90;;;;;;5033575;28;20035;-88
2022/06/10 06:02:05;;;;;;;9.00;2.10;;;16.30;99.90;;;;;;5036314;28;20467;-88
2022/06/10 06:04:31;;;;;;;10.40;1.67;;;16.30;99.90;;;;;;5038291;28;20124;-88
2022/06/10 06:06:57;;;;;;;10.05;1.90;;;16.40;99.90;;;;;;5035119;28;20115;-88
2022/06/10 06:09:22;;;;;;;9.20;2.15;;;16.40;99.90;;;;;;5038195;28;20028;-87
2022/06/10 06:11:50;;;;;;;11.10;1.60;;;16.50;99.90;;;;;;5036013;28;20044;-88
2022/06/10 06:14:17;;;;;;;9.95;2.45;;;16.60;99.90;;;;;;5036619;28;20079;-87
2022/06/10 06:16:48;;;;;;;5.03;1.20;;;16.70;99.90;;;;;;5032095;28;20029;-88
2022/06/10 06:19:14;;;;;;;8.77;1.75;;;16.90;99.90;;;;;;5034455;28;20024;-87
2022/06/10 06:21:39;;;;;;;8.82;1.77;;;17.00;99.90;;;;;;5036735;28;20035;-88
2022/06/10 06:24:05;;;;;;;12.30;1.98;;;17.10;99.90;;;;;;5032366;28;20032;-88
2022/06/10 06:26:31;;;;;;;7.13;1.13;;;17.20;99.90;;;;;;5034002;28;20025;-89
2022/06/10 06:28:56;;;;;;;8.95;1.15;;;17.20;99.90;;;;;;5021842;28;20075;-88
2022/06/10 06:31:22;;;;;;;8.40;1.35;;;17.30;99.90;;;;;;5051434;28;20098;-89
2022/06/10 06:33:48;;;;;;;7.22;1.45;;;17.40;99.90;;;;;;5053974;28;20017;-88
2022/06/10 06:36:24;;;;;;;8.57;1.23;;;17.50;99.90;;;;;;5035637;28;20060;-89
2022/06/10 06:38:50;;;;;;;5.72;1.13;;;17.60;99.90;;;;;;5035655;28;20025;-90
2022/06/10 06:41:16;;;;;;;10.15;1.20;;;17.60;99.90;;;;;;5037336;28;20542;-89
2022/06/10 06:43:42;;;;;;;4.57;0.98;;;17.60;99.90;;;;;;5062623;28;20025;-90
2022/06/10 06:46:13;;;;;;;7.28;1.02;;;17.60;99.90;;;;;;5035638;28;20017;-89
2022/06/10 06:48:39;;;;;;;6.57;1.27;;;17.60;99.90;;;;;;5053096;28;20037;-84
2022/06/10 06:51:06;;;;;;;7.88;1.55;;;17.60;99.90;;;;;;5032206;28;20043;-84
2022/06/10 06:53:32;;;;;;;3.28;0.70;;;17.60;99.90;;;;;;5043745;28;20040;-84
2022/06/10 06:55:58;;;;;;;6.72;0.70;;;17.60;99.90;;;;;;5044187;28;20036;-83
2022/06/10 06:58:24;;;;;;;6.72;1.15;;;17.70;99.90;;;;;;5029684;28;20025;-83
2022/06/10 07:00:49;;;;;;;5.70;0.90;;;17.70;99.90;;;;;;5032327;28;20029;-85
2022/06/10 07:03:15;;;;;;;4.13;1.00;;;17.70;99.90;;;;;;5034711;28;20102;-85
2022/06/10 07:05:42;;;;;;;6.50;0.82;;;17.80;99.90;;;;;;5034608;28;20029;-86
2022/06/10 07:08:10;;;;;;;6.72;1.08;;;17.80;99.90;;;;;;5041545;28;20020;-84
2022/06/10 07:10:36;;;;;;;4.28;0.80;;;17.80;99.90;;;;;;5036380;28;20029;-87
2022/06/10 07:13:02;;;;;;;6.75;0.75;;;17.90;99.90;;;;;;5031284;28;20099;-88
2022/06/10 07:15:27;;;;;;;5.45;0.68;;;17.90;99.90;;;;;;5035207;28;20021;-90
2022/06/10 07:17:53;;;;;;;4.75;0.65;;;18.00;99.90;;;;;;5035418;28;20477;-90
2022/06/10 07:20:26;;;;;;;4.45;0.90;;;18.10;99.90;;;;;;5042147;28;20112;-90
2022/06/10 07:22:52;;;;;;;8.07;0.70;;;18.20;99.90;;;;;;5035834;28;20033;-91
2022/06/10 07:25:18;;;;;;;4.68;0.70;;;18.30;99.90;;;;;;5031810;28;20030;-90
2022/06/10 07:27:44;;;;;;;4.15;0.47;;;18.40;99.90;;;;;;5034245;28;20029;-89
2022/06/10 07:30:15;;;;;;;6.20;0.70;;;18.50;99.90;;;;;;5033764;28;20024;-89
2022/06/10 07:32:42;;;;;;;5.18;0.68;;;18.60;99.90;;;;;;5030091;28;20034;-88
2022/06/10 07:35:08;;;;;;;2.60;0.60;;;18.70;99.90;;;;;;5024744;28;20111;-84
2022/06/10 07:37:33;;;;;;;4.53;0.70;;;18.80;99.90;;;;;;5027559;28;20037;-84
2022/06/10 07:39:59;;;;;;;4.43;0.60;;;19.00;99.90;;;;;;5021488;28;20028;-83
2022/06/10 07:42:25;;;;;;;4.30;0.73;;;19.20;99.90;;;;;;5028278;28;20030;-82
2022/06/10 07:44:50;;;;;;;4.38;0.80;;;19.30;99.90;;;;;;5026533;28;20022;-82
2022/06/10 07:47:16;;;;;;;3.35;0.60;;;19.40;99.90;;;;;;5029581;28;20033;-87
2022/06/10 07:49:42;;;;;;;5.88;0.68;;;19.60;99.90;;;;;;5032862;28;20053;-84
2022/06/10 07:52:08;;;;;;;5.25;0.68;;;19.70;99.90;;;;;;5036854;28;20033;-84
2022/06/10 07:54:34;;;;;;;5.38;0.40;;;19.80;99.90;;;;;;5031303;28;20412;-84
2022/06/10 07:57:00;;;;;;;5.10;0.55;;;19.90;99.90;;;;;;5026972;28;20532;-83
2022/06/10 07:59:26;;;;;;;5.82;0.68;;;20.10;99.90;;;;;;5023431;28;20030;-87
2022/06/10 08:01:52;;;;;;;5.18;0.52;;;20.30;99.90;;;;;;5029354;28;20034;-88
2022/06/10 08:04:17;;;;;;;7.38;0.50;;;20.60;99.90;;;;;;5035366;28;20041;-89
2022/06/10 08:06:46;;;;;;;4.72;0.80;;;20.70;99.90;;;;;;5036519;28;20036;-88
2022/06/10 08:09:12;;;;;;;4.30;0.47;;;20.80;99.90;;;;;;5036383;28;20018;-87
2022/06/10 08:11:38;;;;;;;4.90;0.40;;;20.90;99.90;;;;;;5036286;28;20045;-88
2022/06/10 08:14:05;;;;;;;3.63;0.50;;;21.00;99.90;;;;;;5036285;28;20045;-87
2022/06/10 08:16:31;;;;;;;4.88;0.57;;;21.20;99.90;;;;;;5036970;28;20032;-87
2022/06/10 08:18:57;;;;;;;4.80;0.50;;;21.30;99.90;;;;;;5036437;28;20029;-89
2022/06/10 08:24:06;;;;;;;3.60;0.90;;;21.40;99.90;;;;;;5037910;28;20099;-88
2022/06/10 08:26:34;;;;;;;3.72;0.40;;;21.40;99.90;;;;;;5036563;28;20393;-87
2022/06/10 08:29:03;;;;;;;4.57;0.40;;;21.40;99.90;;;;;;5036284;28;20021;-88
2022/06/10 08:31:29;;;;;;;4.25;0.40;;;21.40;99.90;;;;;;5036180;28;20042;-88
2022/06/10 08:33:54;;;;;;;3.00;0.40;;;21.50;99.90;;;;;;5036668;28;20120;-87
2022/06/10 08:36:20;;;;;;;3.85;0.40;;;21.60;99.90;;;;;;5036077;28;20133;-88
2022/06/10 08:38:45;;;;;;;4.57;0.47;;;21.70;99.90;;;;;;5035963;28;20018;-88
2022/06/10 08:41:29;;;;;;;6.47;0.65;;;21.80;99.90;;;;;;5032673;28;20037;-87
2022/06/10 08:44:25;;;;;;;3.58;0.35;;;22.00;99.90;;;;;;5033003;28;20045;-87
2022/06/10 08:47:07;;;;;;;4.88;0.40;;;22.20;99.90;;;;;;5032625;28;20064;-88
2022/06/10 08:49:51;;;;;;;6.80;0.50;;;22.30;99.90;;;;;;5032468;28;20025;-87
2022/06/10 08:52:22;;;;;;;6.05;0.77;;;22.40;99.90;;;;;;5032665;28;20309;-87
2022/06/10 08:55:03;;;;;;;5.18;0.50;;;22.40;99.50;;;;;;5015975;28;20021;-88
2022/06/10 08:57:36;;;;;;;3.55;0.32;;;22.40;98.80;;;;;;5017081;28;20104;-88
2022/06/10 09:00:11;;;;;;;3.88;0.50;;;22.30;99.00;;;;;;5032173;28;20064;-88
2022/06/10 09:02:49;;;;;;;5.00;0.40;;;22.30;98.50;;;;;;5032656;28;20030;-89
2022/06/10 09:05:21;;;;;;;4.45;0.50;;;22.40;98.60;;;;;;5031999;28;20117;-88
2022/06/10 09:07:57;;;;;;;3.17;0.47;;;22.50;98.50;;;;;;5031980;28;20121;-89
2022/06/10 09:10:51;;;;;;;5.10;0.50;;;22.60;98.10;;;;;;5032095;28;20397;-87
2022/06/10 09:13:35;;;;;;;3.35;0.40;;;22.80;98.10;;;;;;5032372;28;20125;-87
2022/06/10 09:16:10;;;;;;;3.10;0.85;;;23.00;97.60;;;;;;5032149;28;20032;-88
2022/06/10 09:19:04;;;;;;;5.53;0.50;;;23.00;97.30;;;;;;5032274;28;20029;-89
2022/06/10 09:21:46;;;;;;;4.43;0.40;;;23.00;96.60;;;;;;5009699;28;20037;-87
2022/06/10 09:24:53;;;;;;;5.07;0.55;;;23.00;96.90;;;;;;5032457;28;20112;-88
2022/06/10 09:27:23;;;;;;;5.53;0.60;;;23.10;96.60;;;;;;4975431;28;20027;-87
2022/06/10 09:29:48;;;;;;;4.20;0.70;;;23.00;95.90;;;;;;5023737;28;20133;-87
2022/06/10 09:32:41;;;;;;;6.50;0.60;;;22.90;95.80;;;;;;5031958;28;20450;-87
2022/06/10 09:35:18;;;;;;;2.10;0.43;;;22.90;95.90;;;;;;5031658;28;20052;-87
2022/06/10 09:38:00;;;;;;;8.20;0.70;;;23.00;95.70;;;;;;5031776;28;20024;-89
2022/06/10 09:40:43;;;;;;;4.40;0.50;;;22.90;95.70;;;;;;5017754;28;20021;-87
2022/06/10 09:43:19;;;;;;;5.22;0.50;;;22.90;96.20;;;;;;5015369;28;20022;-88
2022/06/10 09:45:58;;;;;;;6.22;0.60;;;23.00;96.40;;;;;;5016055;28;20033;-86
2022/06/10 09:49:12;;;;;;;6.82;0.70;;;23.00;95.60;;;;;;5014979;28;20022;-87
2022/06/10 09:52:06;;;;;;;4.00;0.50;;;22.90;95.60;;;;;;5031745;28;20068;-88
2022/06/10 09:54:59;;;;;;;7.00;0.77;;;22.90;95.30;;;;;;5014980;28;20493;-87
2022/06/10 09:57:55;;;;;;;7.18;0.70;;;23.00;95.40;;;;;;5016512;28;20021;-89
2022/06/10 10:00:38;;;;;;;5.25;0.70;;;23.00;95.30;;;;;;5016146;28;20409;-88
2022/06/10 10:03:45;;;;;;;9.15;0.80;;;23.00;95.00;;;;;;5031757;28;20117;-89
2022/06/10 10:06:24;;;;;;;6.15;0.63;;;23.00;95.00;;;;;;5005592;28;20498;-88
2022/06/10 10:09:08;;;;;;;6.15;0.70;;;23.00;95.40;;;;;;5031423;28;20026;-89
2022/06/10 10:11:55;;;;;;;4.63;0.98;;;23.20;95.00;;;;;;5014795;28;20030;-87
2022/06/10 10:14:53;;;;;;;5.18;0.85;;;23.20;94.50;;;;;;5015626;28;20058;-87
2022/06/10 10:17:48;;;;;;;7.65;0.90;;;22.90;94.40;;;;;;4992691;28;20129;-87
2022/06/10 10:20:30;;;;;;;6.28;0.90;;;22.80;94.90;;;;;;5015760;28;20536;-87
2022/06/10 10:23:09;;;;;;;7.10;0.77;;;22.80;95.40;;;;;;5031047;28;20041;-88
2022/06/10 10:25:40;;;;;;;3.63;0.73;;;23.00;95.10;;;;;;5015882;28;20026;-88
2022/06/10 10:28:31;;;;;;;5.93;0.70;;;23.00;95.00;;;;;;5014414;28;20022;-88
2022/06/10 10:31:05;;;;;;;5.85;0.73;;;23.10;94.90;;;;;;5015302;28;20034;-88
2022/06/10 10:33:30;;;;;;;9.70;0.80;;;23.10;94.80;;;;;;5015156;28;20018;-88
2022/06/10 10:35:58;;;;;;;8.30;0.85;;;23.20;94.50;;;;;;5014000;28;20065;-88
2022/06/10 10:38:56;;;;;;;2.85;0.60;;;23.20;94.50;;;;;;5027069;28;20390;-87
2022/06/10 10:41:42;;;;;;;5.13;1.00;;;23.10;94.50;;;;;;5001613;28;20038;-89
2022/06/10 10:44:20;;;;;;;4.20;0.80;;;23.20;94.70;;;;;;5033772;28;20064;-87
2022/06/10 10:47:13;;;;;;;5.35;0.80;;;23.30;94.60;;;;;;5033788;28;20022;-87
2022/06/10 10:49:46;;;;;;;6.55;0.70;;;23.40;94.60;;;;;;5034128;28;20049;-87
2022/06/10 10:52:17;;;;;;;6.07;0.77;;;23.50;94.60;;;;;;5033619;28;20075;-86
2022/06/10 10:54:45;;;;;;;6.13;0.82;;;23.70;94.50;;;;;;5033571;28;20029;-88
2022/06/10 10:57:21;;;;;;;4.10;0.60;;;23.80;94.20;;;;;;5034798;28;20064;-88
2022/06/10 10:59:55;;;;;;;5.82;0.80;;;24.00;94.20;;;;;;5033663;28;20402;-87
2022/06/10 11:02:35;;;;;;;5.82;1.02;;;24.10;93.90;;;;;;5033328;28;20025;-88
2022/06/10 11:05:35;;;;;;;7.18;1.02;;;24.10;93.40;;;;;;5034511;28;20098;-89
2022/06/10 11:08:12;;;;;;;8.07;1.20;;;23.80;93.30;;;;;;5027098;28;20040;-88
2022/06/10 11:11:06;;;;;;;5.65;0.80;;;23.60;93.40;;;;;;5033202;28;20385;-88
2022/06/10 11:13:37;;;;;;;5.82;1.10;;;23.30;93.30;;;;;;5033261;28;20083;-87
2022/06/10 11:16:29;;;;;;;9.18;0.80;;;23.10;93.80;;;;;;5033247;28;20497;-87
2022/06/10 11:19:12;;;;;;;4.78;0.80;;;23.00;94.10;;;;;;5033345;28;20033;-88
2022/06/10 11:22:10;;;;;;;8.93;1.08;;;23.00;94.50;;;;;;5033171;28;20029;-87
2022/06/10 11:24:40;;;;;;;7.70;1.27;;;23.00;94.50;;;;;;5033120;28;20025;-88
2022/06/10 11:27:31;;;;;;;7.85;1.20;;;23.00;94.50;;;;;;5033024;28;20025;-88
2022/06/10 11:30:11;;;;;;;5.40;0.70;;;23.10;94.50;;;;;;5034332;28;20029;-88
2022/06/10 11:33:06;;;;;;;8.18;0.70;;;23.30;94.40;;;;;;5034173;28;20432;-87
2022/06/10 11:35:56;;;;;;;6.88;0.80;;;23.50;94.30;;;;;;5032863;28;20481;-88
2022/06/10 11:38:26;;;;;;;5.30;0.77;;;23.70;94.30;;;;;;5033928;28;20029;-88
2022/06/10 11:40:56;;;;;;;7.63;0.80;;;23.80;94.20;;;;;;5033114;28;20021;-88
2022/06/10 11:43:37;;;;;;;9.82;1.13;;;24.20;94.10;;;;;;5033057;28;20192;-88
2022/06/10 11:46:13;;;;;;;5.78;1.38;;;24.50;93.50;;;;;;5034528;28;20100;-87
2022/06/10 11:48:51;;;;;;;7.03;1.00;;;24.70;92.70;;;;;;5032841;28;20025;-88
2022/06/10 11:51:40;;;;;;;6.03;0.90;;;24.70;92.80;;;;;;5033141;28;20103;-87
2022/06/10 11:54:26;;;;;;;8.23;0.90;;;24.80;92.40;;;;;;5032912;28;20025;-87
2022/06/10 12:00:22;;;;;;;9.43;1.00;;;24.70;92.60;;;;;;5034342;28;20071;-88
2022/06/10 12:03:15;;;;;;;8.40;1.45;;;24.60;92.70;;;;;;5032962;28;20496;-89
2022/06/10 12:05:48;;;;;;;7.45;1.30;;;24.40;92.50;;;;;;5033156;28;20029;-87
2022/06/10 12:08:32;;;;;;;6.50;1.30;;;24.20;92.50;;;;;;5033652;28;20424;-89
2022/06/10 12:11:02;;;;;;;8.73;1.00;;;23.90;92.70;;;;;;5032510;28;20381;-87
2022/06/10 12:13:46;;;;;;;6.38;1.00;;;23.80;93.40;;;;;;5032760;28;20029;-90
2022/06/10 12:16:13;;;;;;;6.40;1.17;;;23.80;93.60;;;;;;5016654;28;20029;-87
2022/06/10 12:18:47;;;;;;;7.13;0.90;;;24.00;93.60;;;;;;5032623;28;20036;-87
2022/06/10 12:21:22;;;;;;;6.97;0.90;;;24.20;93.30;;;;;;5034078;28;20113;-89
2022/06/10 12:23:48;;;;;;;6.55;1.00;;;24.40;92.80;;;;;;5032472;28;20018;-87
2022/06/10 12:26:27;;;;;;;6.20;1.00;;;24.50;92.10;;;;;;5032725;28;20025;-86
2022/06/10 12:29:10;;;;;;;3.65;0.73;;;24.40;91.70;;;;;;5033651;28;20013;-87
2022/06/10 12:31:59;;;;;;;5.82;0.93;;;24.20;91.80;;;;;;5033178;28;20034;-88
2022/06/10 12:34:48;;;;;;;5.93;1.10;;;24.20;92.20;;;;;;5034458;28;20559;-87
2022/06/10 12:37:24;;;;;;;8.15;1.38;;;24.00;92.20;;;;;;5036058;28;20508;-88
2022/06/10 12:39:56;;;;;;;6.68;0.98;;;23.80;92.30;;;;;;5035878;28;20068;-88
2022/06/10 12:42:40;;;;;;;7.13;1.15;;;23.70;92.50;;;;;;5037080;28;20450;-87
2022/06/10 12:45:19;;;;;;;4.35;0.85;;;23.60;92.90;;;;;;5037240;28;20028;-87
2022/06/10 12:47:45;;;;;;;6.88;1.10;;;23.60;93.00;;;;;;5019270;28;20071;-87
2022/06/10 12:50:22;;;;;;;6.55;1.00;;;23.70;93.00;;;;;;5036622;28;20489;-88
2022/06/10 12:53:09;;;;;;;4.03;0.73;;;23.80;93.10;;;;;;5036799;28;20056;-87
2022/06/10 12:55:53;;;;;;;5.95;1.20;;;24.00;92.80;;;;;;5035465;28;20025;-88
2022/06/10 12:58:37;;;;;;;6.25;1.20;;;24.00;92.80;;;;;;5018997;28;20047;-87
2022/06/10 13:01:28;;;;;;;3.40;0.70;;;24.20;92.40;;;;;;5035752;28;20119;-87
2022/06/10 13:04:04;;;;;;;6.22;1.08;;;24.30;91.90;;;;;;5035578;28;20026;-89
2022/06/10 13:06:45;;;;;;;7.75;0.73;;;24.30;91.90;;;;;;5036575;28;20108;-89
2022/06/10 13:09:10;;;;;;;3.65;0.98;;;24.40;92.20;;;;;;5036516;28;20025;-87
2022/06/10 13:11:46;;;;;;;6.32;1.23;;;24.70;92.30;;;;;;5035400;28;20096;-87
2022/06/10 13:14:18;;;;;;;6.30;1.30;;;25.10;92.30;;;;;;5036653;28;20037;-88
2022/06/10 13:16:48;;;;;;;4.45;1.15;;;25.60;91.40;;;;;;5035465;28;20416;-88
2022/06/10 13:19:31;;;;;;;5.70;1.17;;;25.70;90.60;;;;;;5018970;28;20393;-87
2022/06/10 13:21:58;;;;;;;4.88;0.80;;;26.00;90.50;;;;;;5035534;28;20030;-88
2022/06/10 13:24:24;;;;;;;4.00;1.20;;;26.00;90.00;;;;;;5018892;28;20509;-87
2022/06/10 13:26:51;;;;;;;3.38;0.80;;;26.00;90.10;;;;;;5035097;28;20029;-88
2022/06/10 13:29:20;;;;;;;4.47;0.93;;;26.00;89.30;;;;;;5035182;28;20530;-87